Curtis, AR (71728)

1:44 PM CDT on August 22, 2014 (GMT -0500)
Florence Mem AP, Arkadelphia, | Change Station
CLOSE
Current Station
Airport
Location: Florence Mem AP, Arkadelphia,,
Elevation: 184 ft
Nearby Weather Stations
Active Advisory: Special Statement

Elev 184 ft 34.10 °N, 93.07 °W | Updated 48 minutes ago

Partly Cloudy
Partly Cloudy
90 °F
Feels Like 104 °F
N
8
Wind Variable Wind from SW

Today
High -- | Low -- °F
--% Chance of Precip.
Yesterday
High -- | Low -- °F
Precip. -- in
6:39 AM 7:50 PM
Waning Crescent, 7% visible
Pressure 30.10 in
Visibility 8.0 miles
Clouds Few 2800 ft
Heat Index 104 °F
Dew Point 78 °F
Humidity 67%
Rainfall 0.00 in
Snow Depth Not available.
UV 10 out of 12
Pollen 9.50 out of 12
Air Quality Not available.
Flu Activity Not available.
METAR KADF 221756Z AUTO 23007KT 8SM FEW028 32/26 A3007 RMK AO2 58005 T03220255 10322 20227 SLP193 $

More Conditions Fewer Conditions

Pressure 30.10 in
Visibility 8.0 miles
Clouds Few 2800 ft
Heat Index 104 °F
Dew Point 78 °F
Humidity 67%
Rainfall 0.00 in
Snow Depth Not available.
UV 10 out of 12
Pollen 9.50 out of 12
Air Quality Not available.
Flu Activity Not available.
METAR KADF 221756Z AUTO 23007KT 8SM FEW028 32/26 A3007 RMK AO2 58005 T03220255 10322 20227 SLP193 $

More Conditions Fewer Conditions

10-Day Weather Forecast

Almanac

Astronomy

Aug. 22, 2014 Rise Set
Actual Time 6:39 AM CDT 7:50 PM CDT
Civil Twilight 6:13 AM CDT 8:16 PM CDT
Nautical Twilight 5:42 AM CDT 8:47 PM CDT
Astronomical Twilight 5:09 AM CDT 9:19 PM CDT
Moon 4:05 AM CDT 5:57 PM CDT
Length of Visible Light 14h 03m
Length of Day
13h 11m
Tomorrow will be 1m 56s shorter.
Waning Crescent, 7% of the Moon is Illuminated
Today
Waning Crescent
Aug 25
New
Sep 2
First Quarter
Sep 8
Full
Sep 15
Last Quarter

Today's Extremes

State Highs State Lows

Community

WunderPhotos

Upload Photos

1,746,216 photos uploaded!

Nearby

Snow Depth

Station Depth Elevation
No new snow has been reported.

Earthquake Activity

City Distance Mag. Time & Date
No recent earthquake activity has been reported nearby.
Minimum magnitude displayed is 2.5.

Coastal Water Temperatures

Place Temperature
No Stations Reporting

Nearby Weather Stations